X  Zatvori METAR podaci zračne luke        LGTS Thessaloniki Macedonia International
Temperatura
13°C Temperatura
6°C Točka rosišta
62% Vlaga



Vjetar
9 KM/S
6 MPS
3 M/S
5 Čvorovi



120°
IJI
Trenutna situacija

Mostly Clear Uglavnom vedro
Tlak zraka 1016 (hPa) - 30 (inHg)
Vidljivost 6 (milje) - 10 (km)
Zračna luka
Kôd zračne luke LGTS

Lokacija: Thessaloniki Macedonia International
Udaljenost: 85 (km)

Metar:
METAR LGTS 240320Z 12005KT 9999 FEW030 13/06 Q1016 NOSIG

Vrijeme: 24-02-2024 05:20 EET